createdAt,value
2023-01-18T00:01:19.242Z,99370.06
2023-01-18T00:03:47.671Z,99371.22
2023-01-18T00:06:16.656Z,99375.75
2023-01-18T00:08:45.232Z,99373.69
2023-01-18T00:11:15.576Z,99375.75
2023-01-18T00:13:46.399Z,99373.78
2023-01-18T00:16:16.471Z,99393.00
2023-01-18T00:18:45.157Z,99379.94
2023-01-18T00:21:13.660Z,99376.78
2023-01-18T00:23:42.044Z,99368.84
2023-01-18T00:26:12.670Z,99370.72
2023-01-18T00:28:41.923Z,99375.81
2023-01-18T00:31:17.083Z,99377.44
2023-01-18T00:33:45.950Z,99363.63
2023-01-18T00:36:15.300Z,99362.69
2023-01-18T00:38:43.671Z,99361.16
2023-01-18T00:41:11.836Z,99368.38
2023-01-18T00:43:38.965Z,99353.38
2023-01-18T00:46:07.452Z,99356.84
2023-01-18T00:48:37.221Z,99350.69
2023-01-18T00:51:06.074Z,99334.50
2023-01-18T00:53:34.381Z,99342.88
2023-01-18T00:56:02.535Z,99351.56
2023-01-18T00:58:30.629Z,99338.41
2023-01-18T01:00:58.737Z,99336.63
2023-01-18T01:03:26.931Z,99331.38
2023-01-18T01:06:15.337Z,99353.97
2023-01-18T01:08:50.140Z,99345.88
2023-01-18T01:11:18.201Z,99355.25
2023-01-18T01:14:03.735Z,99341.47
2023-01-18T01:16:49.460Z,99334.25
2023-01-18T01:19:34.816Z,99346.13
2023-01-18T01:22:21.954Z,99331.06
2023-01-18T01:25:07.287Z,99333.19
2023-01-18T01:27:35.385Z,99351.91
2023-01-18T01:30:04.237Z,99350.13
2023-01-18T01:32:32.482Z,99346.22
2023-01-18T01:35:00.590Z,99354.38
2023-01-18T01:37:30.104Z,99345.19
2023-01-18T01:39:58.228Z,99335.72
2023-01-18T01:42:26.569Z,99327.44
2023-01-18T01:44:55.700Z,99325.91
2023-01-18T01:47:38.572Z,99339.09
2023-01-18T01:50:18.322Z,99350.66
2023-01-18T01:52:48.857Z,99347.09
2023-01-18T01:55:23.461Z,99361.09
2023-01-18T01:57:57.836Z,99363.00
2023-01-18T02:00:26.999Z,99359.56
2023-01-18T02:02:59.710Z,99340.09
2023-01-18T02:05:29.623Z,99346.03
2023-01-18T02:08:02.550Z,99341.47
2023-01-18T02:10:31.217Z,99344.16
2023-01-18T02:13:01.078Z,99349.84
2023-01-18T02:15:36.238Z,99340.09
2023-01-18T02:18:17.631Z,99340.28
2023-01-18T02:21:13.190Z,99333.84
2023-01-18T02:24:18.896Z,99326.13
2023-01-18T02:27:05.954Z,99323.34
2023-01-18T02:29:59.009Z,99330.06
2023-01-18T02:33:00.300Z,99326.13
2023-01-18T02:35:42.795Z,99330.81
2023-01-18T02:38:15.412Z,99332.81
2023-01-18T02:41:03.453Z,99318.28
2023-01-18T02:43:51.720Z,99327.91
2023-01-18T02:46:33.914Z,99327.31
2023-01-18T02:49:09.426Z,99321.84
2023-01-18T02:51:37.858Z,99326.94
2023-01-18T02:54:09.814Z,99333.72
2023-01-18T02:56:41.575Z,99338.44
2023-01-18T02:59:15.360Z,99338.66
2023-01-18T03:01:49.755Z,99343.63
2023-01-18T03:04:23.352Z,99337.97
2023-01-18T03:06:58.762Z,99341.44
2023-01-18T03:09:28.537Z,99341.56
2023-01-18T03:12:02.465Z,99325.38
2023-01-18T03:14:41.207Z,99322.50
2023-01-18T03:17:15.920Z,99324.25
2023-01-18T03:20:07.538Z,99313.69
2023-01-18T03:22:57.074Z,99321.75
2023-01-18T03:25:30.657Z,99316.53
2023-01-18T03:28:19.633Z,99319.56
2023-01-18T03:31:07.181Z,99322.06
2023-01-18T03:33:46.520Z,99317.63
2023-01-18T03:36:19.369Z,99316.72
2023-01-18T03:38:52.135Z,99333.22
2023-01-18T03:41:23.239Z,99339.69
2023-01-18T03:43:56.040Z,99344.84
2023-01-18T03:46:27.502Z,99343.09
2023-01-18T03:48:58.224Z,99341.63
2023-01-18T03:51:35.103Z,99332.72
2023-01-18T03:54:12.769Z,99336.75
2023-01-18T03:56:47.444Z,99338.31
2023-01-18T03:59:15.691Z,99327.00
2023-01-18T04:01:48.267Z,99333.94
2023-01-18T04:04:17.947Z,99348.25
2023-01-18T04:06:46.052Z,99358.28
2023-01-18T04:09:14.374Z,99346.88
2023-01-18T04:11:42.459Z,99347.84
2023-01-18T04:14:10.643Z,99355.09
2023-01-18T04:16:38.692Z,99363.06
2023-01-18T04:19:07.507Z,99348.56
2023-01-18T04:21:38.601Z,99349.44
2023-01-18T04:24:07.190Z,99338.47
2023-01-18T04:26:35.474Z,99340.69
2023-01-18T04:29:04.199Z,99343.91
2023-01-18T04:31:32.688Z,99340.09
2023-01-18T04:34:00.920Z,99334.28
2023-01-18T04:36:29.841Z,99347.75
2023-01-18T04:38:59.434Z,99347.13
2023-01-18T04:41:27.715Z,99336.41
2023-01-18T04:43:55.855Z,99336.47
2023-01-18T04:46:24.264Z,99336.56
2023-01-18T04:48:53.541Z,99338.69
2023-01-18T04:51:24.097Z,99347.16
2023-01-18T04:53:52.571Z,99346.94
2023-01-18T04:56:22.221Z,99335.91
2023-01-18T04:58:50.365Z,99345.91
2023-01-18T05:01:18.535Z,99341.56
2023-01-18T05:03:46.640Z,99341.16
2023-01-18T05:06:16.733Z,99342.28
2023-01-18T05:08:44.936Z,99345.47
2023-01-18T05:11:15.044Z,99342.94
2023-01-18T05:13:45.156Z,99351.16
2023-01-18T05:16:16.231Z,99348.13
2023-01-18T05:18:44.587Z,99342.47
2023-01-18T05:21:12.814Z,99342.47
2023-01-18T05:23:41.246Z,99327.59
2023-01-18T05:26:14.742Z,99325.84
2023-01-18T05:28:44.763Z,99335.19
2023-01-18T05:31:13.214Z,99327.38
2023-01-18T05:33:41.366Z,99339.94
2023-01-18T05:36:10.254Z,99341.75
2023-01-18T05:38:38.400Z,99338.81
2023-01-18T05:41:07.115Z,99336.19
2023-01-18T05:43:35.842Z,99343.38
2023-01-18T05:46:06.286Z,99354.06
2023-01-18T05:48:34.546Z,99356.66
2023-01-18T05:51:07.837Z,99362.31
2023-01-18T05:53:36.026Z,99351.34
2023-01-18T05:56:06.947Z,99353.38
2023-01-18T05:58:35.415Z,99351.72
2023-01-18T06:01:03.718Z,99349.31
2023-01-18T06:03:33.371Z,99361.56
2023-01-18T06:06:01.862Z,99357.19
2023-01-18T06:08:30.160Z,99345.47
2023-01-18T06:11:00.187Z,99357.47
2023-01-18T06:13:31.021Z,99344.00
2023-01-18T06:16:00.899Z,99345.38
2023-01-18T06:18:30.437Z,99349.28
2023-01-18T06:21:01.783Z,99351.31
2023-01-18T06:23:30.710Z,99361.09
2023-01-18T06:25:58.868Z,99364.84
2023-01-18T06:28:29.658Z,99354.78
2023-01-18T06:30:58.713Z,99360.56
2023-01-18T06:33:27.157Z,99361.72
2023-01-18T06:35:55.322Z,99368.66
2023-01-18T06:38:24.863Z,99374.03
2023-01-18T06:40:52.993Z,99374.00
2023-01-18T06:43:21.094Z,99366.50
2023-01-18T06:45:54.095Z,99380.47
2023-01-18T06:48:22.641Z,99384.34
2023-01-18T06:50:52.496Z,99389.25
2023-01-18T06:53:21.309Z,99382.31
2023-01-18T06:56:00.192Z,99389.00
2023-01-18T06:58:48.006Z,99396.72
2023-01-18T07:01:16.358Z,99386.53
2023-01-18T07:03:44.916Z,99400.34
2023-01-18T07:06:14.259Z,99401.03
2023-01-18T07:08:42.669Z,99406.38
2023-01-18T07:11:14.365Z,99408.78
2023-01-18T07:13:46.311Z,99412.50
2023-01-18T07:16:17.647Z,99417.34
2023-01-18T07:18:58.682Z,99422.81
2023-01-18T07:21:29.961Z,99414.94
2023-01-18T07:24:00.449Z,99423.50
2023-01-18T07:26:30.778Z,99417.06
2023-01-18T07:29:02.122Z,99411.81
2023-01-18T07:31:30.830Z,99415.81
2023-01-18T07:34:00.147Z,99411.84
2023-01-18T07:36:28.678Z,99410.72
2023-01-18T07:39:05.815Z,99413.03
2023-01-18T07:41:36.150Z,99416.91
2023-01-18T07:44:05.419Z,99412.59
2023-01-18T07:46:34.466Z,99411.06
2023-01-18T07:49:06.413Z,99416.16
2023-01-18T07:51:35.212Z,99422.22
2023-01-18T07:54:03.689Z,99417.59
2023-01-18T07:56:33.157Z,99415.31
2023-01-18T07:59:02.717Z,99436.09
2023-01-18T08:01:31.150Z,99446.41
2023-01-18T08:03:59.433Z,99449.78
2023-01-18T08:06:28.995Z,99458.41
2023-01-18T08:08:57.932Z,99455.78
2023-01-18T08:11:27.061Z,99452.41
2023-01-18T08:13:55.497Z,99458.28
2023-01-18T08:16:27.159Z,99463.88
2023-01-18T08:18:55.824Z,99456.19
2023-01-18T08:21:25.497Z,99454.59
2023-01-18T08:23:55.610Z,99451.47
2023-01-18T08:26:24.917Z,99453.19
2023-01-18T08:28:53.117Z,99450.50
2023-01-18T08:31:24.247Z,99450.69
2023-01-18T08:33:53.080Z,99451.31
2023-01-18T08:36:23.375Z,99454.72
2023-01-18T08:38:53.577Z,99464.94
2023-01-18T08:41:22.755Z,99464.94
2023-01-18T08:43:52.609Z,99461.16
2023-01-18T08:46:20.835Z,99468.88
2023-01-18T08:48:53.438Z,99473.09
2023-01-18T08:51:23.106Z,99466.06
2023-01-18T08:53:51.721Z,99457.56
2023-01-18T08:56:20.355Z,99450.66
2023-01-18T08:58:48.611Z,99451.75
2023-01-18T09:01:17.355Z,99449.09
2023-01-18T09:03:50.596Z,99461.00
2023-01-18T09:06:21.403Z,99461.03
2023-01-18T09:08:50.879Z,99457.41
2023-01-18T09:11:20.035Z,99442.28
2023-01-18T09:14:00.253Z,99440.88
2023-01-18T09:16:30.051Z,99417.72
2023-01-18T09:18:58.701Z,99436.78
2023-01-18T09:21:29.747Z,99426.53
2023-01-18T09:23:59.584Z,99430.66
2023-01-18T09:26:30.701Z,99432.59
2023-01-18T09:29:00.667Z,99422.06
2023-01-18T09:31:30.759Z,99411.53
2023-01-18T09:34:17.465Z,99427.13
2023-01-18T09:36:50.413Z,99409.34
2023-01-18T09:39:18.766Z,99421.00
2023-01-18T09:41:53.678Z,99402.81
2023-01-18T09:44:28.890Z,99407.84
2023-01-18T09:47:01.388Z,99420.25
2023-01-18T09:49:38.409Z,99421.56
2023-01-18T09:52:25.022Z,99418.34
2023-01-18T09:55:04.059Z,99409.25
2023-01-18T09:57:44.899Z,99417.94
2023-01-18T10:00:21.950Z,99403.41
2023-01-18T10:02:53.788Z,99416.19
2023-01-18T10:05:27.538Z,99381.75
2023-01-18T10:08:06.207Z,99400.28
2023-01-18T10:10:39.547Z,99392.97
2023-01-18T10:13:49.057Z,99393.91
2023-01-18T10:16:18.465Z,99391.28
2023-01-18T10:18:49.303Z,99390.56
2023-01-18T10:21:24.027Z,99392.22
2023-01-18T10:24:09.618Z,99380.22
2023-01-18T10:26:39.814Z,99378.22
2023-01-18T10:29:15.866Z,99374.66
2023-01-18T10:31:55.805Z,99379.66
2023-01-18T10:34:28.660Z,99387.53
2023-01-18T10:37:04.464Z,99389.63
2023-01-18T10:39:40.320Z,99383.06
2023-01-18T10:42:29.843Z,99366.56
2023-01-18T10:44:58.425Z,99396.81
2023-01-18T10:47:26.672Z,99396.84
2023-01-18T10:50:00.226Z,99404.25
2023-01-18T10:52:30.823Z,99379.41
2023-01-18T10:55:07.521Z,99388.22
2023-01-18T10:57:38.509Z,99392.41
2023-01-18T11:00:21.335Z,99385.78
2023-01-18T11:02:50.666Z,99385.09
2023-01-18T11:05:25.785Z,99386.22
2023-01-18T11:08:12.089Z,99404.81
2023-01-18T11:10:42.187Z,99394.44
2023-01-18T11:13:26.004Z,99384.28
2023-01-18T11:16:05.688Z,99378.44
2023-01-18T11:18:33.971Z,99383.13
2023-01-18T11:21:03.137Z,99382.38
2023-01-18T11:23:35.782Z,99368.41
2023-01-18T11:26:08.083Z,99375.72
2023-01-18T11:28:40.519Z,99366.03
2023-01-18T11:31:13.078Z,99378.38
2023-01-18T11:33:51.130Z,99362.91
2023-01-18T11:36:20.951Z,99374.94
2023-01-18T11:38:49.313Z,99368.66
2023-01-18T11:41:23.543Z,99377.16
2023-01-18T11:44:13.034Z,99376.00
2023-01-18T11:46:46.181Z,99382.66
2023-01-18T11:49:26.145Z,99387.75
2023-01-18T11:52:01.957Z,99385.53
2023-01-18T11:54:37.965Z,99389.75
2023-01-18T11:57:12.537Z,99402.91
2023-01-18T11:59:43.670Z,99404.94
2023-01-18T12:02:40.472Z,99395.22
2023-01-18T12:05:45.900Z,99409.97
2023-01-18T12:08:49.485Z,99391.31
2023-01-18T12:11:30.496Z,99408.03
2023-01-18T12:14:06.116Z,99406.03
2023-01-18T12:16:49.287Z,99401.75
2023-01-18T12:19:41.875Z,99410.31
2023-01-18T12:22:26.869Z,99413.38
2023-01-18T12:25:07.463Z,99421.88
2023-01-18T12:27:44.570Z,99413.38
2023-01-18T12:30:23.119Z,99436.13
2023-01-18T12:33:06.737Z,99438.84
2023-01-18T12:35:57.474Z,99427.88
2023-01-18T12:38:29.580Z,99444.19
2023-01-18T12:41:25.819Z,99436.88
2023-01-18T12:44:11.871Z,99436.06
2023-01-18T12:46:48.853Z,99450.44
2023-01-18T12:49:21.940Z,99438.03
2023-01-18T12:52:09.182Z,99442.25
2023-01-18T12:54:48.939Z,99446.88
2023-01-18T12:57:18.295Z,99457.28
2023-01-18T12:59:52.906Z,99450.34
2023-01-18T13:02:34.495Z,99451.47
2023-01-18T13:05:12.217Z,99444.88
2023-01-18T13:07:43.827Z,99434.81
2023-01-18T13:10:21.642Z,99418.41
2023-01-18T13:12:53.017Z,99410.59
2023-01-18T13:15:29.950Z,99414.44
2023-01-18T13:18:09.754Z,99411.56
2023-01-18T13:20:47.768Z,99430.41
2023-01-18T13:23:28.629Z,99406.47
2023-01-18T13:26:08.320Z,99416.41
2023-01-18T13:28:38.421Z,99411.97
2023-01-18T13:31:07.474Z,99413.34
2023-01-18T13:33:45.006Z,99426.03
2023-01-18T13:36:15.649Z,99418.84
2023-01-18T13:38:52.209Z,99449.34
2023-01-18T13:41:25.004Z,99437.19
2023-01-18T13:44:14.519Z,99454.22
2023-01-18T13:46:42.837Z,99451.09
2023-01-18T13:49:38.560Z,99457.66
2023-01-18T13:52:32.081Z,99471.09
2023-01-18T13:55:03.823Z,99471.59
2023-01-18T13:57:35.011Z,99472.75
2023-01-18T14:00:05.190Z,99484.66
2023-01-18T14:02:42.149Z,99470.59
2023-01-18T14:05:25.112Z,99489.16
2023-01-18T14:07:56.983Z,99474.47
2023-01-18T14:10:31.890Z,99484.09
2023-01-18T14:13:03.202Z,99491.25
2023-01-18T14:15:47.186Z,99491.94
2023-01-18T14:18:23.339Z,99487.28
2023-01-18T14:21:20.284Z,99488.03
2023-01-18T14:24:18.931Z,99515.03
2023-01-18T14:26:48.992Z,99504.13
2023-01-18T14:29:25.687Z,99517.94
2023-01-18T14:31:56.134Z,99505.97
2023-01-18T14:34:38.006Z,99530.59
2023-01-18T14:37:27.178Z,99538.56
2023-01-18T14:40:15.495Z,99549.25
2023-01-18T14:42:48.666Z,99539.25
2023-01-18T14:45:22.183Z,99549.25
2023-01-18T14:47:50.410Z,99546.50
2023-01-18T14:50:21.288Z,99544.41
2023-01-18T14:52:53.397Z,99558.25
2023-01-18T14:55:29.230Z,99560.69
2023-01-18T14:58:14.976Z,99563.78
2023-01-18T15:00:48.253Z,99571.41
2023-01-18T15:03:24.154Z,99592.50
2023-01-18T15:05:58.839Z,99575.16
2023-01-18T15:08:34.485Z,99586.41
2023-01-18T15:11:05.794Z,99580.94
2023-01-18T15:13:41.680Z,99587.75
2023-01-18T15:16:09.989Z,99585.06
2023-01-18T15:18:38.467Z,99567.66
2023-01-18T15:21:13.546Z,99561.13
2023-01-18T15:23:43.583Z,99563.53
2023-01-18T15:26:11.759Z,99568.66
2023-01-18T15:28:40.513Z,99580.66
2023-01-18T15:31:15.294Z,99580.72
2023-01-18T15:33:44.905Z,99583.00
2023-01-18T15:36:14.176Z,99595.91
2023-01-18T15:38:43.918Z,99588.97
2023-01-18T15:41:15.911Z,99594.44
2023-01-18T15:43:45.637Z,99601.81
2023-01-18T15:46:16.275Z,99599.59
2023-01-18T15:48:50.906Z,99609.78
2023-01-18T15:51:22.585Z,99620.81
2023-01-18T15:53:56.563Z,99621.16
2023-01-18T15:56:27.880Z,99632.31
2023-01-18T15:58:58.395Z,99645.72
2023-01-18T16:01:29.362Z,99653.31
2023-01-18T16:04:00.454Z,99662.22
2023-01-18T16:06:37.439Z,99668.13
2023-01-18T16:09:19.137Z,99678.81
2023-01-18T16:11:52.098Z,99678.81
2023-01-18T16:14:23.606Z,99671.06
2023-01-18T16:16:52.934Z,99678.41
2023-01-18T16:19:25.723Z,99676.91
2023-01-18T16:21:58.979Z,99671.28
2023-01-18T16:24:38.016Z,99673.94
2023-01-18T16:27:12.850Z,99675.63
2023-01-18T16:29:45.985Z,99683.56
2023-01-18T16:32:29.506Z,99674.84
2023-01-18T16:35:00.288Z,99686.16
2023-01-18T16:37:29.597Z,99693.44
2023-01-18T16:39:59.951Z,99690.09
2023-01-18T16:42:37.601Z,99694.22
2023-01-18T16:45:14.141Z,99699.59
2023-01-18T16:47:42.720Z,99703.44
2023-01-18T16:50:16.407Z,99705.16
2023-01-18T16:52:44.965Z,99710.81
2023-01-18T16:55:16.311Z,99715.59
2023-01-18T16:57:45.459Z,99730.34
2023-01-18T17:00:18.444Z,99738.22
2023-01-18T17:02:48.343Z,99728.56
2023-01-18T17:05:18.343Z,99735.53
2023-01-18T17:07:51.081Z,99742.31
2023-01-18T17:10:26.297Z,99751.53
2023-01-18T17:12:55.527Z,99751.91
2023-01-18T17:15:23.734Z,99749.13
2023-01-18T17:17:52.096Z,99736.22
2023-01-18T17:20:23.042Z,99744.31
2023-01-18T17:22:52.702Z,99748.53
2023-01-18T17:25:23.225Z,99753.31
2023-01-18T17:27:52.092Z,99749.53
2023-01-18T17:30:23.391Z,99755.81
2023-01-18T17:32:52.719Z,99770.50
2023-01-18T17:35:27.906Z,99762.88
2023-01-18T17:38:04.681Z,99770.06
2023-01-18T17:40:44.215Z,99778.31
2023-01-18T17:43:17.361Z,99787.91
2023-01-18T17:45:59.813Z,99790.84
2023-01-18T17:48:30.529Z,99790.41
2023-01-18T17:50:59.193Z,99793.50
2023-01-18T17:53:27.673Z,99798.28
2023-01-18T17:55:57.893Z,99806.19
2023-01-18T17:58:26.739Z,99801.25
2023-01-18T18:00:55.899Z,99797.31
2023-01-18T18:03:24.169Z,99802.03
2023-01-18T18:05:59.031Z,99797.59
2023-01-18T18:08:27.419Z,99802.22
2023-01-18T18:10:59.983Z,99792.91
2023-01-18T18:13:28.858Z,99801.41
2023-01-18T18:15:58.692Z,99800.91
2023-01-18T18:18:27.467Z,99793.31
2023-01-18T18:20:58.850Z,99799.66
2023-01-18T18:23:27.753Z,99791.84
2023-01-18T18:25:58.632Z,99796.97
2023-01-18T18:28:29.746Z,99793.84
2023-01-18T18:30:59.766Z,99802.56
2023-01-18T18:33:29.561Z,99792.47
2023-01-18T18:35:58.298Z,99789.66
2023-01-18T18:38:33.634Z,99793.84
2023-01-18T18:41:07.037Z,99798.78
2023-01-18T18:43:35.348Z,99804.44
2023-01-18T18:46:03.921Z,99803.19
2023-01-18T18:48:32.080Z,99805.81
2023-01-18T18:51:00.778Z,99813.94
2023-01-18T18:53:37.549Z,99817.94
2023-01-18T18:56:10.712Z,99810.44
2023-01-18T18:58:39.605Z,99812.56
2023-01-18T19:01:18.944Z,99795.66
2023-01-18T19:03:48.654Z,99797.78
2023-01-18T19:06:17.387Z,99794.63
2023-01-18T19:08:46.496Z,99793.84
2023-01-18T19:11:16.914Z,99792.50
2023-01-18T19:13:46.707Z,99798.00
2023-01-18T19:16:17.059Z,99796.88
2023-01-18T19:18:45.834Z,99796.41
2023-01-18T19:21:14.549Z,99809.19
2023-01-18T19:23:43.675Z,99795.25
2023-01-18T19:26:13.056Z,99819.06
2023-01-18T19:28:43.651Z,99802.50
2023-01-18T19:31:12.959Z,99807.22
2023-01-18T19:33:41.320Z,99814.09
2023-01-18T19:36:12.803Z,99829.09
2023-01-18T19:38:46.737Z,99833.09
2023-01-18T19:41:18.275Z,99837.84
2023-01-18T19:43:50.304Z,99850.97
2023-01-18T19:46:20.464Z,99847.06
2023-01-18T19:48:49.496Z,99856.81
2023-01-18T19:51:23.083Z,99860.53
2023-01-18T19:53:53.320Z,99864.13
2023-01-18T19:56:22.326Z,99864.13
2023-01-18T19:58:56.080Z,99859.84
2023-01-18T20:01:35.829Z,99858.50
2023-01-18T20:04:06.616Z,99851.63
2023-01-18T20:06:37.681Z,99859.03
2023-01-18T20:09:17.810Z,99852.97
2023-01-18T20:11:46.664Z,99856.97
2023-01-18T20:14:16.344Z,99856.06
2023-01-18T20:16:46.192Z,99850.47
2023-01-18T20:19:15.836Z,99849.81
2023-01-18T20:21:44.568Z,99854.75
2023-01-18T20:24:12.876Z,99856.66
2023-01-18T20:26:42.204Z,99850.59
2023-01-18T20:29:11.395Z,99859.84
2023-01-18T20:31:44.579Z,99857.63
2023-01-18T20:34:17.357Z,99852.84
2023-01-18T20:36:46.204Z,99856.00
2023-01-18T20:39:15.049Z,99869.16
2023-01-18T20:41:43.808Z,99872.97
2023-01-18T20:44:12.443Z,99873.94
2023-01-18T20:46:42.286Z,99870.84
2023-01-18T20:49:10.752Z,99876.75
2023-01-18T20:51:40.360Z,99866.19
2023-01-18T20:54:09.016Z,99869.13
2023-01-18T20:56:37.301Z,99870.28
2023-01-18T20:59:05.612Z,99867.13
2023-01-18T21:01:37.256Z,99862.53
2023-01-18T21:04:07.490Z,99869.47
2023-01-18T21:06:36.175Z,99867.34
2023-01-18T21:09:04.768Z,99867.50
2023-01-18T21:11:33.024Z,99873.88
2023-01-18T21:14:01.436Z,99869.19
2023-01-18T21:16:29.867Z,99872.41
2023-01-18T21:19:01.640Z,99869.50
2023-01-18T21:21:32.085Z,99867.59
2023-01-18T21:24:01.525Z,99862.19
2023-01-18T21:26:30.081Z,99868.72
2023-01-18T21:28:59.512Z,99860.88
2023-01-18T21:31:27.782Z,99866.03
2023-01-18T21:33:56.576Z,99867.59
2023-01-18T21:36:25.301Z,99865.09
2023-01-18T21:38:55.305Z,99864.03
2023-01-18T21:41:41.191Z,99866.38
2023-01-18T21:44:28.500Z,99866.22
2023-01-18T21:46:56.751Z,99860.66
2023-01-18T21:50:11.319Z,99858.28
2023-01-18T21:52:48.960Z,99855.38
2023-01-18T21:55:19.756Z,99864.91
2023-01-18T21:58:08.701Z,99874.75
2023-01-18T22:00:38.718Z,99875.09
2023-01-18T22:03:09.654Z,99868.03
2023-01-18T22:05:40.804Z,99869.19
2023-01-18T22:08:10.495Z,99868.69
2023-01-18T22:10:40.315Z,99864.22
2023-01-18T22:13:09.094Z,99870.28
2023-01-18T22:15:37.906Z,99861.88
2023-01-18T22:18:06.948Z,99851.44
2023-01-18T22:20:35.384Z,99857.94
2023-01-18T22:23:03.807Z,99845.50
2023-01-18T22:25:31.957Z,99833.84
2023-01-18T22:28:02.717Z,99828.00
2023-01-18T22:30:31.196Z,99827.69
2023-01-18T22:32:59.724Z,99836.19
2023-01-18T22:35:27.899Z,99831.28
2023-01-18T22:37:56.042Z,99833.38
2023-01-18T22:40:24.222Z,99820.94
2023-01-18T22:42:52.400Z,99826.78
2023-01-18T22:45:21.959Z,99816.03
2023-01-18T22:47:50.303Z,99818.81
2023-01-18T22:50:19.373Z,99823.63
2023-01-18T22:52:47.509Z,99836.75
2023-01-18T22:55:18.430Z,99838.44
2023-01-18T22:57:46.511Z,99855.06
2023-01-18T23:00:15.741Z,99852.34
2023-01-18T23:02:45.295Z,99853.03
2023-01-18T23:05:13.472Z,99852.78
2023-01-18T23:07:42.004Z,99849.44
2023-01-18T23:10:11.228Z,99849.44
2023-01-18T23:12:39.572Z,99840.47
2023-01-18T23:15:25.851Z,99849.09
2023-01-18T23:17:55.520Z,99852.03
2023-01-18T23:20:24.492Z,99861.97
2023-01-18T23:22:53.855Z,99852.03
2023-01-18T23:25:22.069Z,99851.44
2023-01-18T23:27:50.239Z,99851.34
2023-01-18T23:30:18.869Z,99844.38
2023-01-18T23:32:47.234Z,99844.50
2023-01-18T23:35:16.862Z,99845.50
2023-01-18T23:37:45.116Z,99849.41
2023-01-18T23:40:31.223Z,99850.88
2023-01-18T23:43:16.574Z,99848.72
2023-01-18T23:46:02.419Z,99855.25
2023-01-18T23:48:48.009Z,99859.16
2023-01-18T23:51:35.178Z,99867.56
2023-01-18T23:54:18.783Z,99861.88
2023-01-18T23:56:48.089Z,99866.72
